<?xml version="1.0" encoding="UTF-8"?>
<gpx creator="Wikiloc - https://www.wikiloc.com" version="1.1" xmlns="http://www.topografix.com/GPX/1/1" xmlns:xsi="http://www.w3.org/2001/XMLSchema-instance" xsi:schemaLocation="http://www.topografix.com/GPX/1/1 http://www.topografix.com/GPX/1/1/gpx.xsd">
  <trk>
    <name>SL-BA 198 'Sendero Botánico de Masatrigo' (Galizuela)</name>
    <cmt>Más información en http://fexme.com/buscar-senderos/</cmt>
    <desc>Más información en http://fexme.com/buscar-senderos/</desc>
    <trkseg>
      <trkpt lat="38.935890" lon="-5.211450">
        <ele>369.7</ele>
        <time>2010-02-05T16:33:32Z</time>
      </trkpt>
      <trkpt lat="38.935880" lon="-5.211450">
        <ele>370.6</ele>
        <time>2010-02-05T16:33:34Z</time>
      </trkpt>
      <trkpt lat="38.935880" lon="-5.211440">
        <ele>370.3</ele>
        <time>2010-02-05T16:34:00Z</time>
      </trkpt>
      <trkpt lat="38.935880" lon="-5.211440">
        <ele>371.2</ele>
        <time>2010-02-05T16:34:02Z</time>
      </trkpt>
      <trkpt lat="38.935890" lon="-5.211440">
        <ele>370.6</ele>
        <time>2010-02-05T16:34:19Z</time>
      </trkpt>
      <trkpt lat="38.935890" lon="-5.211440">
        <ele>371.6</ele>
        <time>2010-02-05T16:35:13Z</time>
      </trkpt>
      <trkpt lat="38.935890" lon="-5.211440">
        <ele>370.6</ele>
        <time>2010-02-05T16:35:15Z</time>
      </trkpt>
      <trkpt lat="38.935880" lon="-5.211430">
        <ele>370.6</ele>
        <time>2010-02-05T16:35:57Z</time>
      </trkpt>
      <trkpt lat="38.935870" lon="-5.211420">
        <ele>371.2</ele>
        <time>2010-02-05T16:36:32Z</time>
      </trkpt>
      <trkpt lat="38.935890" lon="-5.211410">
        <ele>371.2</ele>
        <time>2010-02-05T16:36:34Z</time>
      </trkpt>
      <trkpt lat="38.935920" lon="-5.211350">
        <ele>371.6</ele>
        <time>2010-02-05T16:36:39Z</time>
      </trkpt>
      <trkpt lat="38.935960" lon="-5.211080">
        <ele>374.6</ele>
        <time>2010-02-05T16:37:00Z</time>
      </trkpt>
      <trkpt lat="38.935970" lon="-5.211020">
        <ele>373.7</ele>
        <time>2010-02-05T16:37:29Z</time>
      </trkpt>
      <trkpt lat="38.935970" lon="-5.211020">
        <ele>377.0</ele>
        <time>2010-02-05T16:37:38Z</time>
      </trkpt>
      <trkpt lat="38.935980" lon="-5.211020">
        <ele>373.1</ele>
        <time>2010-02-05T16:38:06Z</time>
      </trkpt>
      <trkpt lat="38.935980" lon="-5.211020">
        <ele>376.4</ele>
        <time>2010-02-05T16:38:07Z</time>
      </trkpt>
      <trkpt lat="38.935990" lon="-5.211010">
        <ele>375.5</ele>
        <time>2010-02-05T16:38:37Z</time>
      </trkpt>
      <trkpt lat="38.936000" lon="-5.211010">
        <ele>375.5</ele>
        <time>2010-02-05T16:39:02Z</time>
      </trkpt>
      <trkpt lat="38.936230" lon="-5.210850">
        <ele>376.1</ele>
        <time>2010-02-05T16:39:28Z</time>
      </trkpt>
      <trkpt lat="38.936230" lon="-5.210850">
        <ele>374.6</ele>
        <time>2010-02-05T16:39:43Z</time>
      </trkpt>
      <trkpt lat="38.936310" lon="-5.210790">
        <ele>377.3</ele>
        <time>2010-02-05T16:40:03Z</time>
      </trkpt>
      <trkpt lat="38.936330" lon="-5.210780">
        <ele>373.7</ele>
        <time>2010-02-05T16:40:04Z</time>
      </trkpt>
      <trkpt lat="38.936590" lon="-5.210420">
        <ele>375.2</ele>
        <time>2010-02-05T16:40:31Z</time>
      </trkpt>
      <trkpt lat="38.936700" lon="-5.210210">
        <ele>371.2</ele>
        <time>2010-02-05T16:40:45Z</time>
      </trkpt>
      <trkpt lat="38.936710" lon="-5.210200">
        <ele>375.5</ele>
        <time>2010-02-05T16:40:46Z</time>
      </trkpt>
      <trkpt lat="38.936760" lon="-5.210110">
        <ele>375.5</ele>
        <time>2010-02-05T16:40:56Z</time>
      </trkpt>
      <trkpt lat="38.936760" lon="-5.210110">
        <ele>369.7</ele>
        <time>2010-02-05T16:41:00Z</time>
      </trkpt>
      <trkpt lat="38.936750" lon="-5.210110">
        <ele>373.1</ele>
        <time>2010-02-05T16:41:01Z</time>
      </trkpt>
      <trkpt lat="38.936750" lon="-5.210110">
        <ele>376.1</ele>
        <time>2010-02-05T16:41:03Z</time>
      </trkpt>
      <trkpt lat="38.936750" lon="-5.210110">
        <ele>374.6</ele>
        <time>2010-02-05T16:41:06Z</time>
      </trkpt>
      <trkpt lat="38.936770" lon="-5.210080">
        <ele>379.5</ele>
        <time>2010-02-05T16:41:11Z</time>
      </trkpt>
      <trkpt lat="38.936780" lon="-5.210060">
        <ele>376.1</ele>
        <time>2010-02-05T16:41:12Z</time>
      </trkpt>
      <trkpt lat="38.936800" lon="-5.210030">
        <ele>374.6</ele>
        <time>2010-02-05T16:41:14Z</time>
      </trkpt>
      <trkpt lat="38.936900" lon="-5.209880">
        <ele>374.6</ele>
        <time>2010-02-05T16:41:24Z</time>
      </trkpt>
      <trkpt lat="38.937060" lon="-5.209250">
        <ele>376.1</ele>
        <time>2010-02-05T16:42:01Z</time>
      </trkpt>
      <trkpt lat="38.937090" lon="-5.208550">
        <ele>377.0</ele>
        <time>2010-02-05T16:42:38Z</time>
      </trkpt>
      <trkpt lat="38.937070" lon="-5.207920">
        <ele>378.0</ele>
        <time>2010-02-05T16:43:12Z</time>
      </trkpt>
      <trkpt lat="38.937000" lon="-5.207380">
        <ele>378.6</ele>
        <time>2010-02-05T16:43:41Z</time>
      </trkpt>
      <trkpt lat="38.936990" lon="-5.207350">
        <ele>378.0</ele>
        <time>2010-02-05T16:43:54Z</time>
      </trkpt>
      <trkpt lat="38.936900" lon="-5.206970">
        <ele>378.6</ele>
        <time>2010-02-05T16:44:17Z</time>
      </trkpt>
      <trkpt lat="38.936840" lon="-5.206780">
        <ele>378.0</ele>
        <time>2010-02-05T16:44:29Z</time>
      </trkpt>
      <trkpt lat="38.936760" lon="-5.206560">
        <ele>378.0</ele>
        <time>2010-02-05T16:44:42Z</time>
      </trkpt>
      <trkpt lat="38.936520" lon="-5.206210">
        <ele>378.0</ele>
        <time>2010-02-05T16:45:08Z</time>
      </trkpt>
      <trkpt lat="38.936170" lon="-5.205740">
        <ele>378.9</ele>
        <time>2010-02-05T16:45:43Z</time>
      </trkpt>
      <trkpt lat="38.935850" lon="-5.205340">
        <ele>378.9</ele>
        <time>2010-02-05T16:46:14Z</time>
      </trkpt>
      <trkpt lat="38.935480" lon="-5.204950">
        <ele>378.6</ele>
        <time>2010-02-05T16:46:47Z</time>
      </trkpt>
      <trkpt lat="38.935160" lon="-5.204490">
        <ele>377.3</ele>
        <time>2010-02-05T16:47:19Z</time>
      </trkpt>
      <trkpt lat="38.935100" lon="-5.204380">
        <ele>377.0</ele>
        <time>2010-02-05T16:47:33Z</time>
      </trkpt>
      <trkpt lat="38.935040" lon="-5.204340">
        <ele>377.3</ele>
        <time>2010-02-05T16:47:38Z</time>
      </trkpt>
      <trkpt lat="38.934700" lon="-5.204130">
        <ele>378.9</ele>
        <time>2010-02-05T16:48:05Z</time>
      </trkpt>
      <trkpt lat="38.934370" lon="-5.203960">
        <ele>379.5</ele>
        <time>2010-02-05T16:48:30Z</time>
      </trkpt>
      <trkpt lat="38.933920" lon="-5.203820">
        <ele>381.3</ele>
        <time>2010-02-05T16:49:02Z</time>
      </trkpt>
      <trkpt lat="38.933460" lon="-5.203850">
        <ele>382.8</ele>
        <time>2010-02-05T16:49:34Z</time>
      </trkpt>
      <trkpt lat="38.933030" lon="-5.203940">
        <ele>385.3</ele>
        <time>2010-02-05T16:50:04Z</time>
      </trkpt>
      <trkpt lat="38.932740" lon="-5.204010">
        <ele>384.7</ele>
        <time>2010-02-05T16:50:26Z</time>
      </trkpt>
      <trkpt lat="38.932680" lon="-5.204020">
        <ele>384.7</ele>
        <time>2010-02-05T16:50:32Z</time>
      </trkpt>
      <trkpt lat="38.932440" lon="-5.204180">
        <ele>385.3</ele>
        <time>2010-02-05T16:50:57Z</time>
      </trkpt>
      <trkpt lat="38.932240" lon="-5.204310">
        <ele>386.2</ele>
        <time>2010-02-05T16:51:17Z</time>
      </trkpt>
      <trkpt lat="38.932130" lon="-5.204380">
        <ele>385.3</ele>
        <time>2010-02-05T16:51:41Z</time>
      </trkpt>
      <trkpt lat="38.931920" lon="-5.204540">
        <ele>383.7</ele>
        <time>2010-02-05T16:52:05Z</time>
      </trkpt>
      <trkpt lat="38.931580" lon="-5.204930">
        <ele>380.7</ele>
        <time>2010-02-05T16:52:37Z</time>
      </trkpt>
      <trkpt lat="38.931380" lon="-5.205300">
        <ele>381.3</ele>
        <time>2010-02-05T16:53:04Z</time>
      </trkpt>
      <trkpt lat="38.931250" lon="-5.205570">
        <ele>381.9</ele>
        <time>2010-02-05T16:53:30Z</time>
      </trkpt>
      <trkpt lat="38.931180" lon="-5.205710">
        <ele>382.8</ele>
        <time>2010-02-05T16:53:53Z</time>
      </trkpt>
      <trkpt lat="38.930960" lon="-5.206220">
        <ele>380.4</ele>
        <time>2010-02-05T16:54:24Z</time>
      </trkpt>
      <trkpt lat="38.930830" lon="-5.206600">
        <ele>379.8</ele>
        <time>2010-02-05T16:54:49Z</time>
      </trkpt>
      <trkpt lat="38.930810" lon="-5.206690">
        <ele>379.5</ele>
        <time>2010-02-05T16:55:17Z</time>
      </trkpt>
      <trkpt lat="38.930760" lon="-5.207140">
        <ele>378.6</ele>
        <time>2010-02-05T16:55:43Z</time>
      </trkpt>
      <trkpt lat="38.930730" lon="-5.207530">
        <ele>376.4</ele>
        <time>2010-02-05T16:56:08Z</time>
      </trkpt>
      <trkpt lat="38.930740" lon="-5.207970">
        <ele>376.1</ele>
        <time>2010-02-05T16:56:32Z</time>
      </trkpt>
      <trkpt lat="38.930810" lon="-5.208350">
        <ele>376.1</ele>
        <time>2010-02-05T16:56:53Z</time>
      </trkpt>
      <trkpt lat="38.931000" lon="-5.208890">
        <ele>377.3</ele>
        <time>2010-02-05T16:57:25Z</time>
      </trkpt>
      <trkpt lat="38.931060" lon="-5.209180">
        <ele>377.3</ele>
        <time>2010-02-05T16:57:49Z</time>
      </trkpt>
      <trkpt lat="38.931060" lon="-5.209220">
        <ele>378.0</ele>
        <time>2010-02-05T16:58:18Z</time>
      </trkpt>
      <trkpt lat="38.931100" lon="-5.209350">
        <ele>376.4</ele>
        <time>2010-02-05T16:58:26Z</time>
      </trkpt>
      <trkpt lat="38.931220" lon="-5.209790">
        <ele>374.6</ele>
        <time>2010-02-05T16:58:52Z</time>
      </trkpt>
      <trkpt lat="38.931380" lon="-5.210300">
        <ele>372.8</ele>
        <time>2010-02-05T16:59:22Z</time>
      </trkpt>
      <trkpt lat="38.931560" lon="-5.210640">
        <ele>372.8</ele>
        <time>2010-02-05T16:59:46Z</time>
      </trkpt>
      <trkpt lat="38.931880" lon="-5.211110">
        <ele>374.6</ele>
        <time>2010-02-05T17:00:20Z</time>
      </trkpt>
      <trkpt lat="38.932110" lon="-5.211390">
        <ele>373.7</ele>
        <time>2010-02-05T17:00:48Z</time>
      </trkpt>
      <trkpt lat="38.932220" lon="-5.211480">
        <ele>374.6</ele>
        <time>2010-02-05T17:01:20Z</time>
      </trkpt>
      <trkpt lat="38.932550" lon="-5.211670">
        <ele>374.6</ele>
        <time>2010-02-05T17:01:46Z</time>
      </trkpt>
      <trkpt lat="38.932990" lon="-5.211940">
        <ele>374.0</ele>
        <time>2010-02-05T17:02:20Z</time>
      </trkpt>
      <trkpt lat="38.933360" lon="-5.212090">
        <ele>374.0</ele>
        <time>2010-02-05T17:02:46Z</time>
      </trkpt>
      <trkpt lat="38.933830" lon="-5.212180">
        <ele>374.6</ele>
        <time>2010-02-05T17:03:18Z</time>
      </trkpt>
      <trkpt lat="38.934320" lon="-5.212220">
        <ele>374.6</ele>
        <time>2010-02-05T17:03:52Z</time>
      </trkpt>
      <trkpt lat="38.934860" lon="-5.212110">
        <ele>375.2</ele>
        <time>2010-02-05T17:04:29Z</time>
      </trkpt>
      <trkpt lat="38.935340" lon="-5.211860">
        <ele>374.6</ele>
        <time>2010-02-05T17:05:05Z</time>
      </trkpt>
      <trkpt lat="38.935770" lon="-5.211520">
        <ele>373.1</ele>
        <time>2010-02-05T17:05:41Z</time>
      </trkpt>
      <trkpt lat="38.935890" lon="-5.211420">
        <ele>371.2</ele>
        <time>2010-02-05T17:06:08Z</time>
      </trkpt>
      <trkpt lat="38.935940" lon="-5.211310">
        <ele>373.1</ele>
        <time>2010-02-05T17:06:36Z</time>
      </trkpt>
      <trkpt lat="38.935970" lon="-5.211070">
        <ele>375.2</ele>
        <time>2010-02-05T17:06:53Z</time>
      </trkpt>
      <trkpt lat="38.935950" lon="-5.211050">
        <ele>376.4</ele>
        <time>2010-02-05T17:06:56Z</time>
      </trkpt>
      <trkpt lat="38.935700" lon="-5.211160">
        <ele>379.8</ele>
        <time>2010-02-05T17:07:18Z</time>
      </trkpt>
      <trkpt lat="38.935530" lon="-5.211270">
        <ele>383.1</ele>
        <time>2010-02-05T17:07:35Z</time>
      </trkpt>
      <trkpt lat="38.935430" lon="-5.211340">
        <ele>386.2</ele>
        <time>2010-02-05T17:07:45Z</time>
      </trkpt>
      <trkpt lat="38.935410" lon="-5.211350">
        <ele>387.1</ele>
        <time>2010-02-05T17:07:47Z</time>
      </trkpt>
      <trkpt lat="38.935310" lon="-5.211390">
        <ele>389.8</ele>
        <time>2010-02-05T17:08:00Z</time>
      </trkpt>
      <trkpt lat="38.935310" lon="-5.211390">
        <ele>388.0</ele>
        <time>2010-02-05T17:08:01Z</time>
      </trkpt>
      <trkpt lat="38.935310" lon="-5.211390">
        <ele>387.1</ele>
        <time>2010-02-05T17:08:03Z</time>
      </trkpt>
      <trkpt lat="38.935130" lon="-5.211490">
        <ele>388.0</ele>
        <time>2010-02-05T17:08:33Z</time>
      </trkpt>
      <trkpt lat="38.935100" lon="-5.211500">
        <ele>384.7</ele>
        <time>2010-02-05T17:08:54Z</time>
      </trkpt>
      <trkpt lat="38.935100" lon="-5.211500">
        <ele>386.5</ele>
        <time>2010-02-05T17:08:57Z</time>
      </trkpt>
      <trkpt lat="38.935120" lon="-5.211490">
        <ele>385.3</ele>
        <time>2010-02-05T17:09:07Z</time>
      </trkpt>
      <trkpt lat="38.935150" lon="-5.211480">
        <ele>386.2</ele>
        <time>2010-02-05T17:09:27Z</time>
      </trkpt>
      <trkpt lat="38.935130" lon="-5.211480">
        <ele>390.4</ele>
        <time>2010-02-05T17:09:45Z</time>
      </trkpt>
      <trkpt lat="38.935130" lon="-5.211480">
        <ele>387.1</ele>
        <time>2010-02-05T17:09:47Z</time>
      </trkpt>
      <trkpt lat="38.935130" lon="-5.211470">
        <ele>389.8</ele>
        <time>2010-02-05T17:10:05Z</time>
      </trkpt>
      <trkpt lat="38.935130" lon="-5.211470">
        <ele>386.5</ele>
        <time>2010-02-05T17:10:07Z</time>
      </trkpt>
      <trkpt lat="38.935130" lon="-5.211470">
        <ele>387.7</ele>
        <time>2010-02-05T17:10:17Z</time>
      </trkpt>
      <trkpt lat="38.935130" lon="-5.211470">
        <ele>388.0</ele>
        <time>2010-02-05T17:10:19Z</time>
      </trkpt>
      <trkpt lat="38.935130" lon="-5.211470">
        <ele>384.7</ele>
        <time>2010-02-05T17:10:21Z</time>
      </trkpt>
      <trkpt lat="38.935130" lon="-5.211470">
        <ele>389.8</ele>
        <time>2010-02-05T17:10:25Z</time>
      </trkpt>
      <trkpt lat="38.935130" lon="-5.211470">
        <ele>389.5</ele>
        <time>2010-02-05T17:10:26Z</time>
      </trkpt>
      <trkpt lat="38.935130" lon="-5.211480">
        <ele>386.2</ele>
        <time>2010-02-05T17:10:48Z</time>
      </trkpt>
      <trkpt lat="38.935100" lon="-5.211470">
        <ele>387.7</ele>
        <time>2010-02-05T17:11:25Z</time>
      </trkpt>
      <trkpt lat="38.935140" lon="-5.211350">
        <ele>391.1</ele>
        <time>2010-02-05T17:11:38Z</time>
      </trkpt>
      <trkpt lat="38.935190" lon="-5.211280">
        <ele>393.8</ele>
        <time>2010-02-05T17:11:58Z</time>
      </trkpt>
      <trkpt lat="38.935190" lon="-5.211280">
        <ele>391.1</ele>
        <time>2010-02-05T17:12:28Z</time>
      </trkpt>
      <trkpt lat="38.935190" lon="-5.211280">
        <ele>394.4</ele>
        <time>2010-02-05T17:12:29Z</time>
      </trkpt>
      <trkpt lat="38.935200" lon="-5.211270">
        <ele>394.7</ele>
        <time>2010-02-05T17:12:35Z</time>
      </trkpt>
      <trkpt lat="38.935210" lon="-5.211260">
        <ele>390.4</ele>
        <time>2010-02-05T17:12:44Z</time>
      </trkpt>
      <trkpt lat="38.935220" lon="-5.211250">
        <ele>388.9</ele>
        <time>2010-02-05T17:12:45Z</time>
      </trkpt>
      <trkpt lat="38.935240" lon="-5.211040">
        <ele>389.5</ele>
        <time>2010-02-05T17:13:04Z</time>
      </trkpt>
      <trkpt lat="38.935230" lon="-5.210840">
        <ele>393.2</ele>
        <time>2010-02-05T17:13:22Z</time>
      </trkpt>
      <trkpt lat="38.935230" lon="-5.210840">
        <ele>392.9</ele>
        <time>2010-02-05T17:13:23Z</time>
      </trkpt>
      <trkpt lat="38.935090" lon="-5.210780">
        <ele>395.3</ele>
        <time>2010-02-05T17:13:50Z</time>
      </trkpt>
      <trkpt lat="38.935000" lon="-5.210810">
        <ele>394.7</ele>
        <time>2010-02-05T17:14:11Z</time>
      </trkpt>
      <trkpt lat="38.934910" lon="-5.210830">
        <ele>401.1</ele>
        <time>2010-02-05T17:14:28Z</time>
      </trkpt>
      <trkpt lat="38.934910" lon="-5.210830">
        <ele>406.3</ele>
        <time>2010-02-05T17:14:29Z</time>
      </trkpt>
      <trkpt lat="38.934900" lon="-5.210840">
        <ele>405.7</ele>
        <time>2010-02-05T17:14:30Z</time>
      </trkpt>
      <trkpt lat="38.934910" lon="-5.210830">
        <ele>406.3</ele>
        <time>2010-02-05T17:14:51Z</time>
      </trkpt>
      <trkpt lat="38.934900" lon="-5.210830">
        <ele>406.3</ele>
        <time>2010-02-05T17:15:18Z</time>
      </trkpt>
      <trkpt lat="38.934910" lon="-5.210830">
        <ele>406.3</ele>
        <time>2010-02-05T17:15:32Z</time>
      </trkpt>
      <trkpt lat="38.934890" lon="-5.210820">
        <ele>405.7</ele>
        <time>2010-02-05T17:16:13Z</time>
      </trkpt>
      <trkpt lat="38.934920" lon="-5.210720">
        <ele>407.8</ele>
        <time>2010-02-05T17:17:15Z</time>
      </trkpt>
      <trkpt lat="38.934920" lon="-5.210730">
        <ele>409.0</ele>
        <time>2010-02-05T17:17:23Z</time>
      </trkpt>
      <trkpt lat="38.934920" lon="-5.210730">
        <ele>408.1</ele>
        <time>2010-02-05T17:17:49Z</time>
      </trkpt>
      <trkpt lat="38.934930" lon="-5.210600">
        <ele>411.2</ele>
        <time>2010-02-05T17:18:04Z</time>
      </trkpt>
      <trkpt lat="38.934920" lon="-5.210490">
        <ele>414.5</ele>
        <time>2010-02-05T17:18:16Z</time>
      </trkpt>
      <trkpt lat="38.934880" lon="-5.210380">
        <ele>417.9</ele>
        <time>2010-02-05T17:18:30Z</time>
      </trkpt>
      <trkpt lat="38.934830" lon="-5.210260">
        <ele>420.6</ele>
        <time>2010-02-05T17:18:44Z</time>
      </trkpt>
      <trkpt lat="38.934800" lon="-5.210170">
        <ele>424.0</ele>
        <time>2010-02-05T17:18:56Z</time>
      </trkpt>
      <trkpt lat="38.934750" lon="-5.210040">
        <ele>427.0</ele>
        <time>2010-02-05T17:19:11Z</time>
      </trkpt>
      <trkpt lat="38.934700" lon="-5.209920">
        <ele>430.4</ele>
        <time>2010-02-05T17:19:30Z</time>
      </trkpt>
      <trkpt lat="38.934690" lon="-5.209890">
        <ele>433.1</ele>
        <time>2010-02-05T17:19:42Z</time>
      </trkpt>
      <trkpt lat="38.934690" lon="-5.209890">
        <ele>429.8</ele>
        <time>2010-02-05T17:19:47Z</time>
      </trkpt>
      <trkpt lat="38.934690" lon="-5.209890">
        <ele>433.1</ele>
        <time>2010-02-05T17:19:48Z</time>
      </trkpt>
      <trkpt lat="38.934690" lon="-5.209890">
        <ele>430.4</ele>
        <time>2010-02-05T17:19:56Z</time>
      </trkpt>
      <trkpt lat="38.934690" lon="-5.209890">
        <ele>433.1</ele>
        <time>2010-02-05T17:19:57Z</time>
      </trkpt>
      <trkpt lat="38.934690" lon="-5.209890">
        <ele>429.8</ele>
        <time>2010-02-05T17:19:59Z</time>
      </trkpt>
      <trkpt lat="38.934690" lon="-5.209890">
        <ele>432.2</ele>
        <time>2010-02-05T17:20:02Z</time>
      </trkpt>
      <trkpt lat="38.934700" lon="-5.209890">
        <ele>432.2</ele>
        <time>2010-02-05T17:20:26Z</time>
      </trkpt>
      <trkpt lat="38.934690" lon="-5.209870">
        <ele>432.2</ele>
        <time>2010-02-05T17:21:00Z</time>
      </trkpt>
      <trkpt lat="38.934690" lon="-5.209860">
        <ele>432.8</ele>
        <time>2010-02-05T17:21:20Z</time>
      </trkpt>
      <trkpt lat="38.934760" lon="-5.209810">
        <ele>433.1</ele>
        <time>2010-02-05T17:21:38Z</time>
      </trkpt>
      <trkpt lat="38.934770" lon="-5.209800">
        <ele>433.7</ele>
        <time>2010-02-05T17:21:44Z</time>
      </trkpt>
      <trkpt lat="38.934880" lon="-5.209720">
        <ele>435.3</ele>
        <time>2010-02-05T17:22:09Z</time>
      </trkpt>
      <trkpt lat="38.934880" lon="-5.209710">
        <ele>435.6</ele>
        <time>2010-02-05T17:22:20Z</time>
      </trkpt>
      <trkpt lat="38.934870" lon="-5.209720">
        <ele>434.6</ele>
        <time>2010-02-05T17:22:22Z</time>
      </trkpt>
      <trkpt lat="38.934880" lon="-5.209710">
        <ele>434.6</ele>
        <time>2010-02-05T17:22:29Z</time>
      </trkpt>
      <trkpt lat="38.934880" lon="-5.209710">
        <ele>435.3</ele>
        <time>2010-02-05T17:23:33Z</time>
      </trkpt>
      <trkpt lat="38.934930" lon="-5.209460">
        <ele>437.1</ele>
        <time>2010-02-05T17:24:21Z</time>
      </trkpt>
      <trkpt lat="38.934960" lon="-5.209250">
        <ele>439.8</ele>
        <time>2010-02-05T17:24:39Z</time>
      </trkpt>
      <trkpt lat="38.934930" lon="-5.209200">
        <ele>443.2</ele>
        <time>2010-02-05T17:24:47Z</time>
      </trkpt>
      <trkpt lat="38.934860" lon="-5.209180">
        <ele>446.2</ele>
        <time>2010-02-05T17:25:00Z</time>
      </trkpt>
      <trkpt lat="38.934820" lon="-5.209190">
        <ele>449.0</ele>
        <time>2010-02-05T17:25:19Z</time>
      </trkpt>
      <trkpt lat="38.934800" lon="-5.209230">
        <ele>448.1</ele>
        <time>2010-02-05T17:25:35Z</time>
      </trkpt>
      <trkpt lat="38.934800" lon="-5.209230">
        <ele>447.8</ele>
        <time>2010-02-05T17:25:41Z</time>
      </trkpt>
      <trkpt lat="38.934800" lon="-5.209230">
        <ele>447.1</ele>
        <time>2010-02-05T17:25:45Z</time>
      </trkpt>
      <trkpt lat="38.934770" lon="-5.209260">
        <ele>447.1</ele>
        <time>2010-02-05T17:26:37Z</time>
      </trkpt>
      <trkpt lat="38.934490" lon="-5.209440">
        <ele>448.7</ele>
        <time>2010-02-05T17:27:05Z</time>
      </trkpt>
      <trkpt lat="38.934480" lon="-5.209450">
        <ele>447.8</ele>
        <time>2010-02-05T17:27:33Z</time>
      </trkpt>
      <trkpt lat="38.934480" lon="-5.209450">
        <ele>446.2</ele>
        <time>2010-02-05T17:28:23Z</time>
      </trkpt>
      <trkpt lat="38.934480" lon="-5.209450">
        <ele>447.8</ele>
        <time>2010-02-05T17:28:25Z</time>
      </trkpt>
      <trkpt lat="38.934480" lon="-5.209440">
        <ele>450.5</ele>
        <time>2010-02-05T17:28:30Z</time>
      </trkpt>
      <trkpt lat="38.934450" lon="-5.209450">
        <ele>448.1</ele>
        <time>2010-02-05T17:28:33Z</time>
      </trkpt>
      <trkpt lat="38.934240" lon="-5.209580">
        <ele>447.8</ele>
        <time>2010-02-05T17:28:54Z</time>
      </trkpt>
      <trkpt lat="38.933980" lon="-5.209610">
        <ele>448.7</ele>
        <time>2010-02-05T17:29:18Z</time>
      </trkpt>
      <trkpt lat="38.933850" lon="-5.209640">
        <ele>448.1</ele>
        <time>2010-02-05T17:29:37Z</time>
      </trkpt>
      <trkpt lat="38.933760" lon="-5.209620">
        <ele>449.0</ele>
        <time>2010-02-05T17:29:56Z</time>
      </trkpt>
      <trkpt lat="38.933760" lon="-5.209620">
        <ele>448.7</ele>
        <time>2010-02-05T17:30:03Z</time>
      </trkpt>
      <trkpt lat="38.933760" lon="-5.209620">
        <ele>447.1</ele>
        <time>2010-02-05T17:30:08Z</time>
      </trkpt>
      <trkpt lat="38.933760" lon="-5.209620">
        <ele>449.0</ele>
        <time>2010-02-05T17:30:10Z</time>
      </trkpt>
      <trkpt lat="38.933760" lon="-5.209610">
        <ele>448.1</ele>
        <time>2010-02-05T17:30:12Z</time>
      </trkpt>
      <trkpt lat="38.933770" lon="-5.209530">
        <ele>451.4</ele>
        <time>2010-02-05T17:30:52Z</time>
      </trkpt>
      <trkpt lat="38.933780" lon="-5.209530">
        <ele>452.0</ele>
        <time>2010-02-05T17:30:53Z</time>
      </trkpt>
      <trkpt lat="38.933960" lon="-5.209460">
        <ele>454.5</ele>
        <time>2010-02-05T17:31:13Z</time>
      </trkpt>
      <trkpt lat="38.934000" lon="-5.209430">
        <ele>454.8</ele>
        <time>2010-02-05T17:31:19Z</time>
      </trkpt>
      <trkpt lat="38.934050" lon="-5.209400">
        <ele>456.3</ele>
        <time>2010-02-05T17:31:25Z</time>
      </trkpt>
      <trkpt lat="38.934150" lon="-5.209330">
        <ele>457.8</ele>
        <time>2010-02-05T17:31:45Z</time>
      </trkpt>
      <trkpt lat="38.934120" lon="-5.209290">
        <ele>460.2</ele>
        <time>2010-02-05T17:31:56Z</time>
      </trkpt>
      <trkpt lat="38.934080" lon="-5.209290">
        <ele>460.2</ele>
        <time>2010-02-05T17:32:00Z</time>
      </trkpt>
      <trkpt lat="38.933900" lon="-5.209270">
        <ele>462.7</ele>
        <time>2010-02-05T17:32:24Z</time>
      </trkpt>
      <trkpt lat="38.933880" lon="-5.209270">
        <ele>463.0</ele>
        <time>2010-02-05T17:32:28Z</time>
      </trkpt>
      <trkpt lat="38.933800" lon="-5.209220">
        <ele>464.8</ele>
        <time>2010-02-05T17:32:41Z</time>
      </trkpt>
      <trkpt lat="38.933780" lon="-5.209220">
        <ele>465.4</ele>
        <time>2010-02-05T17:32:43Z</time>
      </trkpt>
      <trkpt lat="38.933700" lon="-5.209180">
        <ele>466.0</ele>
        <time>2010-02-05T17:33:05Z</time>
      </trkpt>
      <trkpt lat="38.933690" lon="-5.209170">
        <ele>467.0</ele>
        <time>2010-02-05T17:33:35Z</time>
      </trkpt>
      <trkpt lat="38.933730" lon="-5.209110">
        <ele>469.4</ele>
        <time>2010-02-05T17:34:08Z</time>
      </trkpt>
      <trkpt lat="38.933740" lon="-5.209110">
        <ele>468.8</ele>
        <time>2010-02-05T17:34:09Z</time>
      </trkpt>
      <trkpt lat="38.933840" lon="-5.209110">
        <ele>469.7</ele>
        <time>2010-02-05T17:34:24Z</time>
      </trkpt>
      <trkpt lat="38.933970" lon="-5.209010">
        <ele>473.0</ele>
        <time>2010-02-05T17:34:42Z</time>
      </trkpt>
      <trkpt lat="38.934070" lon="-5.208940">
        <ele>476.1</ele>
        <time>2010-02-05T17:34:55Z</time>
      </trkpt>
      <trkpt lat="38.934270" lon="-5.208830">
        <ele>476.4</ele>
        <time>2010-02-05T17:35:16Z</time>
      </trkpt>
      <trkpt lat="38.934280" lon="-5.208820">
        <ele>476.4</ele>
        <time>2010-02-05T17:35:17Z</time>
      </trkpt>
      <trkpt lat="38.934380" lon="-5.208790">
        <ele>475.5</ele>
        <time>2010-02-05T17:35:27Z</time>
      </trkpt>
      <trkpt lat="38.934480" lon="-5.208510">
        <ele>477.3</ele>
        <time>2010-02-05T17:35:51Z</time>
      </trkpt>
      <trkpt lat="38.934470" lon="-5.208480">
        <ele>479.5</ele>
        <time>2010-02-05T17:36:24Z</time>
      </trkpt>
      <trkpt lat="38.934470" lon="-5.208470">
        <ele>478.5</ele>
        <time>2010-02-05T17:36:41Z</time>
      </trkpt>
      <trkpt lat="38.934470" lon="-5.208470">
        <ele>477.0</ele>
        <time>2010-02-05T17:36:44Z</time>
      </trkpt>
      <trkpt lat="38.934460" lon="-5.208460">
        <ele>479.8</ele>
        <time>2010-02-05T17:37:16Z</time>
      </trkpt>
      <trkpt lat="38.934460" lon="-5.208460">
        <ele>475.5</ele>
        <time>2010-02-05T17:37:17Z</time>
      </trkpt>
      <trkpt lat="38.934460" lon="-5.208460">
        <ele>480.7</ele>
        <time>2010-02-05T17:37:18Z</time>
      </trkpt>
      <trkpt lat="38.934450" lon="-5.208460">
        <ele>477.3</ele>
        <time>2010-02-05T17:37:21Z</time>
      </trkpt>
      <trkpt lat="38.934450" lon="-5.208440">
        <ele>477.3</ele>
        <time>2010-02-05T17:37:36Z</time>
      </trkpt>
      <trkpt lat="38.934450" lon="-5.208440">
        <ele>474.0</ele>
        <time>2010-02-05T17:37:37Z</time>
      </trkpt>
      <trkpt lat="38.934450" lon="-5.208440">
        <ele>475.2</ele>
        <time>2010-02-05T17:37:38Z</time>
      </trkpt>
      <trkpt lat="38.934460" lon="-5.208440">
        <ele>477.0</ele>
        <time>2010-02-05T17:37:53Z</time>
      </trkpt>
      <trkpt lat="38.934460" lon="-5.208450">
        <ele>476.4</ele>
        <time>2010-02-05T17:37:57Z</time>
      </trkpt>
      <trkpt lat="38.934460" lon="-5.208450">
        <ele>477.9</ele>
        <time>2010-02-05T17:38:05Z</time>
      </trkpt>
      <trkpt lat="38.934460" lon="-5.208440">
        <ele>466.3</ele>
        <time>2010-02-05T17:38:11Z</time>
      </trkpt>
      <trkpt lat="38.934460" lon="-5.208440">
        <ele>477.9</ele>
        <time>2010-02-05T17:38:12Z</time>
      </trkpt>
      <trkpt lat="38.934460" lon="-5.208440">
        <ele>478.8</ele>
        <time>2010-02-05T17:38:14Z</time>
      </trkpt>
      <trkpt lat="38.934460" lon="-5.208440">
        <ele>476.4</ele>
        <time>2010-02-05T17:38:16Z</time>
      </trkpt>
      <trkpt lat="38.934460" lon="-5.208440">
        <ele>478.5</ele>
        <time>2010-02-05T17:38:20Z</time>
      </trkpt>
      <trkpt lat="38.934400" lon="-5.208480">
        <ele>478.8</ele>
        <time>2010-02-05T17:38:43Z</time>
      </trkpt>
      <trkpt lat="38.934320" lon="-5.208520">
        <ele>481.9</ele>
        <time>2010-02-05T17:39:02Z</time>
      </trkpt>
      <trkpt lat="38.934290" lon="-5.208540">
        <ele>485.2</ele>
        <time>2010-02-05T17:39:07Z</time>
      </trkpt>
      <trkpt lat="38.934290" lon="-5.208550">
        <ele>484.6</ele>
        <time>2010-02-05T17:39:08Z</time>
      </trkpt>
      <trkpt lat="38.934270" lon="-5.208540">
        <ele>486.2</ele>
        <time>2010-02-05T17:39:51Z</time>
      </trkpt>
      <trkpt lat="38.934250" lon="-5.208560">
        <ele>486.2</ele>
        <time>2010-02-05T17:39:59Z</time>
      </trkpt>
      <trkpt lat="38.934210" lon="-5.208590">
        <ele>487.1</ele>
        <time>2010-02-05T17:40:03Z</time>
      </trkpt>
      <trkpt lat="38.934090" lon="-5.208600">
        <ele>489.5</ele>
        <time>2010-02-05T17:40:16Z</time>
      </trkpt>
      <trkpt lat="38.933980" lon="-5.208590">
        <ele>490.4</ele>
        <time>2010-02-05T17:40:29Z</time>
      </trkpt>
      <trkpt lat="38.933960" lon="-5.208600">
        <ele>491.9</ele>
        <time>2010-02-05T17:40:31Z</time>
      </trkpt>
      <trkpt lat="38.933830" lon="-5.208630">
        <ele>491.9</ele>
        <time>2010-02-05T17:40:48Z</time>
      </trkpt>
      <trkpt lat="38.933770" lon="-5.208590">
        <ele>492.9</ele>
        <time>2010-02-05T17:41:13Z</time>
      </trkpt>
      <trkpt lat="38.933710" lon="-5.208560">
        <ele>493.8</ele>
        <time>2010-02-05T17:41:19Z</time>
      </trkpt>
      <trkpt lat="38.933630" lon="-5.208500">
        <ele>495.3</ele>
        <time>2010-02-05T17:41:31Z</time>
      </trkpt>
      <trkpt lat="38.933580" lon="-5.208460">
        <ele>495.6</ele>
        <time>2010-02-05T17:41:37Z</time>
      </trkpt>
      <trkpt lat="38.933550" lon="-5.208410">
        <ele>497.1</ele>
        <time>2010-02-05T17:41:44Z</time>
      </trkpt>
      <trkpt lat="38.933580" lon="-5.208360">
        <ele>500.5</ele>
        <time>2010-02-05T17:41:56Z</time>
      </trkpt>
      <trkpt lat="38.933620" lon="-5.208360">
        <ele>502.3</ele>
        <time>2010-02-05T17:42:03Z</time>
      </trkpt>
      <trkpt lat="38.933740" lon="-5.208290">
        <ele>506.3</ele>
        <time>2010-02-05T17:42:18Z</time>
      </trkpt>
      <trkpt lat="38.933720" lon="-5.208220">
        <ele>509.3</ele>
        <time>2010-02-05T17:42:29Z</time>
      </trkpt>
      <trkpt lat="38.933650" lon="-5.208160">
        <ele>512.1</ele>
        <time>2010-02-05T17:42:47Z</time>
      </trkpt>
      <trkpt lat="38.933590" lon="-5.208090">
        <ele>513.6</ele>
        <time>2010-02-05T17:42:57Z</time>
      </trkpt>
      <trkpt lat="38.933550" lon="-5.208060">
        <ele>513.6</ele>
        <time>2010-02-05T17:43:02Z</time>
      </trkpt>
      <trkpt lat="38.933490" lon="-5.207990">
        <ele>515.4</ele>
        <time>2010-02-05T17:43:12Z</time>
      </trkpt>
      <trkpt lat="38.933530" lon="-5.207930">
        <ele>518.8</ele>
        <time>2010-02-05T17:43:26Z</time>
      </trkpt>
      <trkpt lat="38.933590" lon="-5.207860">
        <ele>522.1</ele>
        <time>2010-02-05T17:43:42Z</time>
      </trkpt>
      <trkpt lat="38.933500" lon="-5.207780">
        <ele>526.4</ele>
        <time>2010-02-05T17:43:58Z</time>
      </trkpt>
      <trkpt lat="38.933500" lon="-5.207770">
        <ele>526.1</ele>
        <time>2010-02-05T17:43:59Z</time>
      </trkpt>
      <trkpt lat="38.933500" lon="-5.207710">
        <ele>528.5</ele>
        <time>2010-02-05T17:44:10Z</time>
      </trkpt>
      <trkpt lat="38.933460" lon="-5.207670">
        <ele>531.9</ele>
        <time>2010-02-05T17:44:26Z</time>
      </trkpt>
      <trkpt lat="38.933440" lon="-5.207550">
        <ele>535.2</ele>
        <time>2010-02-05T17:44:45Z</time>
      </trkpt>
      <trkpt lat="38.933450" lon="-5.207540">
        <ele>534.3</ele>
        <time>2010-02-05T17:45:03Z</time>
      </trkpt>
      <trkpt lat="38.933450" lon="-5.207540">
        <ele>534.3</ele>
        <time>2010-02-05T17:45:18Z</time>
      </trkpt>
      <trkpt lat="38.933450" lon="-5.207540">
        <ele>535.5</ele>
        <time>2010-02-05T17:45:20Z</time>
      </trkpt>
      <trkpt lat="38.933450" lon="-5.207540">
        <ele>534.6</ele>
        <time>2010-02-05T17:45:22Z</time>
      </trkpt>
      <trkpt lat="38.933450" lon="-5.207540">
        <ele>534.6</ele>
        <time>2010-02-05T17:45:34Z</time>
      </trkpt>
      <trkpt lat="38.933450" lon="-5.207530">
        <ele>534.3</ele>
        <time>2010-02-05T17:45:42Z</time>
      </trkpt>
      <trkpt lat="38.933450" lon="-5.207520">
        <ele>534.3</ele>
        <time>2010-02-05T17:46:03Z</time>
      </trkpt>
      <trkpt lat="38.933440" lon="-5.207520">
        <ele>533.7</ele>
        <time>2010-02-05T17:46:24Z</time>
      </trkpt>
      <trkpt lat="38.933460" lon="-5.207520">
        <ele>533.7</ele>
        <time>2010-02-05T17:46:30Z</time>
      </trkpt>
      <trkpt lat="38.933460" lon="-5.207560">
        <ele>534.3</ele>
        <time>2010-02-05T17:46:47Z</time>
      </trkpt>
      <trkpt lat="38.933460" lon="-5.207570">
        <ele>534.6</ele>
        <time>2010-02-05T17:47:02Z</time>
      </trkpt>
    </trkseg>
  </trk></gpx>